createdAt,value
2018-03-07T00:00:20.563Z,20.80
2018-03-07T00:02:48.020Z,22.23
2018-03-07T00:05:15.465Z,19.80
2018-03-07T00:07:42.924Z,17.10
2018-03-07T00:10:10.414Z,16.53
2018-03-07T00:12:38.653Z,17.50
2018-03-07T00:15:06.097Z,18.27
2018-03-07T00:17:33.555Z,16.33
2018-03-07T00:20:01.030Z,15.70
2018-03-07T00:22:28.486Z,14.80
2018-03-07T00:24:55.949Z,13.63
2018-03-07T00:27:23.425Z,13.57
2018-03-07T00:29:50.881Z,14.27
2018-03-07T00:32:19.122Z,12.40
2018-03-07T00:34:46.569Z,12.97
2018-03-07T00:37:14.057Z,15.30
2018-03-07T00:39:42.294Z,17.07
2018-03-07T00:42:09.761Z,17.77
2018-03-07T00:44:37.217Z,18.80
2018-03-07T00:47:04.701Z,20.33
2018-03-07T00:49:32.954Z,21.93
2018-03-07T00:52:00.424Z,20.20
2018-03-07T00:54:27.873Z,18.17
2018-03-07T00:56:55.330Z,17.60
2018-03-07T00:59:22.786Z,16.47
2018-03-07T01:01:50.294Z,16.23
2018-03-07T01:04:17.772Z,16.77
2018-03-07T01:06:45.229Z,10.80
2018-03-07T01:09:12.701Z,10.47
2018-03-07T01:11:40.170Z,12.80
2018-03-07T01:14:07.629Z,12.03
2018-03-07T01:16:35.117Z,11.40
2018-03-07T01:19:03.343Z,12.30
2018-03-07T01:21:30.791Z,11.43
2018-03-07T01:23:58.250Z,12.57
2018-03-07T01:26:25.754Z,10.90
2018-03-07T01:28:53.205Z,8.87
2018-03-07T01:31:21.429Z,9.53
2018-03-07T01:33:48.886Z,9.33
2018-03-07T01:36:16.336Z,10.77
2018-03-07T01:38:43.797Z,10.33
2018-03-07T01:41:11.253Z,10.13
2018-03-07T01:43:38.729Z,10.00
2018-03-07T01:46:06.177Z,13.07
2018-03-07T01:48:33.634Z,14.97
2018-03-07T01:51:01.085Z,14.20
2018-03-07T01:53:28.541Z,14.20
2018-03-07T01:55:56.022Z,12.97
2018-03-07T01:58:23.474Z,12.93
2018-03-07T02:00:50.925Z,12.83
2018-03-07T02:03:24.098Z,12.87
2018-03-07T02:05:51.569Z,12.63
2018-03-07T02:08:19.027Z,10.97
2018-03-07T02:10:46.498Z,10.50
2018-03-07T02:13:13.969Z,11.87
2018-03-07T02:15:42.209Z,11.30
2018-03-07T02:18:09.657Z,10.07
2018-03-07T02:20:37.113Z,9.93
2018-03-07T02:23:04.593Z,8.90
2018-03-07T02:25:32.049Z,9.47
2018-03-07T02:27:59.513Z,8.37
2018-03-07T02:30:26.970Z,7.53
2018-03-07T02:32:54.432Z,7.33
2018-03-07T02:35:21.887Z,7.30
2018-03-07T02:37:49.333Z,7.97
2018-03-07T02:40:16.781Z,7.83
2018-03-07T02:42:44.254Z,8.17
2018-03-07T02:45:11.725Z,7.93
2018-03-07T02:47:39.929Z,7.93
2018-03-07T02:50:07.387Z,6.97
2018-03-07T02:52:34.829Z,8.07
2018-03-07T02:55:02.303Z,7.70
2018-03-07T02:57:29.758Z,7.80
2018-03-07T02:59:57.222Z,7.50
2018-03-07T03:02:24.698Z,7.07
2018-03-07T03:04:52.149Z,7.40
2018-03-07T03:07:19.606Z,8.20
2018-03-07T03:09:47.056Z,8.23
2018-03-07T03:12:14.549Z,7.53
2018-03-07T03:14:42.027Z,8.60
2018-03-07T03:17:10.238Z,7.43
2018-03-07T03:19:37.714Z,8.80
2018-03-07T03:22:05.176Z,7.40
2018-03-07T03:24:32.633Z,7.50
2018-03-07T03:27:00.102Z,8.00
2018-03-07T03:29:27.545Z,8.33
2018-03-07T03:31:55.046Z,10.00
2018-03-07T03:34:23.261Z,8.03
2018-03-07T03:36:50.715Z,7.97
2018-03-07T03:39:18.185Z,8.40
2018-03-07T03:41:45.637Z,8.30
2018-03-07T03:44:13.097Z,7.43
2018-03-07T03:46:40.556Z,9.00
2018-03-07T03:49:08.013Z,7.70
2018-03-07T03:51:35.469Z,7.83
2018-03-07T03:54:02.925Z,7.70
2018-03-07T03:56:30.390Z,7.00
2018-03-07T03:58:57.825Z,8.50
2018-03-07T04:01:25.285Z,8.37
2018-03-07T04:03:52.726Z,8.30
2018-03-07T04:06:20.201Z,7.60
2018-03-07T04:08:47.663Z,8.20
2018-03-07T04:11:15.113Z,9.30
2018-03-07T04:13:42.566Z,8.90
2018-03-07T04:16:10.036Z,9.47
2018-03-07T04:18:37.480Z,9.03
2018-03-07T04:21:04.934Z,8.90
2018-03-07T04:23:32.376Z,8.57
2018-03-07T04:25:59.839Z,9.27
2018-03-07T04:28:27.289Z,9.00
2018-03-07T04:30:54.765Z,8.97
2018-03-07T04:33:22.229Z,8.50
2018-03-07T04:35:49.680Z,7.87
2018-03-07T04:38:17.131Z,7.97
2018-03-07T04:40:44.634Z,8.43
2018-03-07T04:43:12.050Z,7.70
2018-03-07T04:45:39.497Z,7.87
2018-03-07T04:48:06.957Z,6.83
2018-03-07T04:50:34.400Z,7.80
2018-03-07T04:53:01.897Z,8.37
2018-03-07T04:55:29.345Z,8.83
2018-03-07T04:57:56.796Z,12.87
2018-03-07T05:00:24.251Z,12.90
2018-03-07T05:02:51.705Z,10.70
2018-03-07T05:05:19.153Z,9.97
2018-03-07T05:07:46.647Z,9.10
2018-03-07T05:10:14.865Z,10.63
2018-03-07T05:12:42.321Z,9.13
2018-03-07T05:15:09.769Z,8.10
2018-03-07T05:17:37.218Z,8.13
2018-03-07T05:20:04.661Z,7.80
2018-03-07T05:22:32.877Z,8.40
2018-03-07T05:25:00.322Z,8.30
2018-03-07T05:27:27.781Z,8.37
2018-03-07T05:29:55.221Z,7.77
2018-03-07T05:32:22.673Z,8.10
2018-03-07T05:34:50.116Z,8.50
2018-03-07T05:37:18.338Z,8.40
2018-03-07T05:39:45.804Z,10.97
2018-03-07T05:42:13.258Z,8.73
2018-03-07T05:44:40.707Z,8.60
2018-03-07T05:47:08.163Z,8.67
2018-03-07T05:49:35.630Z,7.40
2018-03-07T05:52:03.105Z,8.20
2018-03-07T05:54:30.563Z,7.63
2018-03-07T05:56:58.015Z,7.80
2018-03-07T05:59:25.487Z,8.03
2018-03-07T06:01:53.696Z,7.80
2018-03-07T06:04:21.161Z,7.63
2018-03-07T06:06:48.597Z,7.77
2018-03-07T06:09:16.053Z,8.70
2018-03-07T06:11:43.506Z,7.73
2018-03-07T06:14:10.953Z,6.83
2018-03-07T06:16:39.181Z,7.90
2018-03-07T06:19:06.664Z,8.17
2018-03-07T06:21:34.151Z,7.33
2018-03-07T06:24:02.369Z,7.80
2018-03-07T06:26:29.810Z,8.00
2018-03-07T06:28:57.258Z,7.03
2018-03-07T06:31:24.702Z,8.03
2018-03-07T06:33:52.148Z,7.53
2018-03-07T06:36:19.593Z,8.50
2018-03-07T06:38:47.901Z,7.40
2018-03-07T06:41:15.333Z,7.50
2018-03-07T06:43:43.593Z,9.13
2018-03-07T06:46:11.032Z,9.10
2018-03-07T06:48:39.946Z,7.77
2018-03-07T06:51:08.161Z,8.17
2018-03-07T06:53:35.620Z,9.70
2018-03-07T06:56:03.081Z,8.30
2018-03-07T06:58:30.528Z,8.30
2018-03-07T07:00:57.987Z,9.13
2018-03-07T07:03:25.457Z,9.27
2018-03-07T07:05:52.904Z,9.27
2018-03-07T07:08:20.357Z,10.23
2018-03-07T07:10:47.822Z,9.23
2018-03-07T07:13:15.265Z,8.53
2018-03-07T07:15:42.714Z,8.97
2018-03-07T07:18:10.162Z,9.20
2018-03-07T07:20:37.626Z,7.90
2018-03-07T07:23:05.070Z,7.37
2018-03-07T07:25:32.517Z,7.07
2018-03-07T07:28:00.828Z,6.07
2018-03-07T07:30:28.279Z,5.63
2018-03-07T07:32:55.732Z,5.30
2018-03-07T07:35:23.188Z,5.20
2018-03-07T07:37:50.633Z,6.07
2018-03-07T07:40:18.088Z,4.67
2018-03-07T07:42:45.533Z,5.13
2018-03-07T07:45:13.757Z,5.87
2018-03-07T07:47:41.196Z,5.47
2018-03-07T07:50:08.649Z,5.43
2018-03-07T07:52:36.097Z,4.80
2018-03-07T07:55:03.552Z,4.63
2018-03-07T07:57:30.998Z,5.70
2018-03-07T07:59:58.464Z,5.20
2018-03-07T08:02:25.899Z,3.90
2018-03-07T08:04:54.109Z,4.40
2018-03-07T08:07:21.557Z,4.87
2018-03-07T08:09:49.066Z,3.67
2018-03-07T08:12:17.294Z,3.60
2018-03-07T08:14:45.163Z,3.83
2018-03-07T08:17:12.609Z,3.30
2018-03-07T08:19:40.067Z,3.90
2018-03-07T08:22:07.514Z,3.30
2018-03-07T08:24:34.966Z,2.37
2018-03-07T08:27:02.408Z,2.00
2018-03-07T08:29:30.630Z,2.23
2018-03-07T08:31:58.078Z,2.03
2018-03-07T08:34:25.520Z,2.50
2018-03-07T08:36:52.979Z,2.50
2018-03-07T08:39:20.446Z,2.30
2018-03-07T08:41:47.902Z,1.97
2018-03-07T08:44:15.350Z,2.70
2018-03-07T08:46:42.810Z,2.40
2018-03-07T08:49:10.258Z,2.20
2018-03-07T08:51:37.715Z,2.27
2018-03-07T08:54:05.161Z,2.20
2018-03-07T08:56:32.609Z,2.37
2018-03-07T08:59:00.823Z,2.07
2018-03-07T09:01:28.313Z,1.60
2018-03-07T09:03:55.724Z,2.03
2018-03-07T09:06:23.203Z,1.90
2018-03-07T09:08:50.654Z,1.60
2018-03-07T09:11:18.104Z,1.10
2018-03-07T09:13:45.554Z,1.10
2018-03-07T09:16:13.010Z,1.20
2018-03-07T09:18:40.466Z,1.60
2018-03-07T09:21:07.914Z,1.10
2018-03-07T09:23:35.364Z,0.77
2018-03-07T09:26:02.809Z,1.10
2018-03-07T09:28:30.305Z,0.67
2018-03-07T09:30:57.745Z,1.13
2018-03-07T09:33:25.970Z,0.70
2018-03-07T09:35:53.430Z,0.80
2018-03-07T09:38:21.643Z,0.67
2018-03-07T09:40:49.106Z,0.80
2018-03-07T09:43:16.643Z,0.80
2018-03-07T09:45:44.091Z,0.70
2018-03-07T09:48:12.310Z,0.83
2018-03-07T09:50:39.757Z,0.70
2018-03-07T09:53:07.217Z,0.70
2018-03-07T09:55:34.666Z,0.60
2018-03-07T09:58:02.125Z,0.70
2018-03-07T10:00:29.571Z,0.90
2018-03-07T10:02:57.022Z,1.10
2018-03-07T10:05:24.465Z,0.80
2018-03-07T10:07:51.931Z,1.00
2018-03-07T10:10:19.371Z,0.90
2018-03-07T10:12:47.590Z,0.87
2018-03-07T10:15:15.114Z,0.87
2018-03-07T10:17:42.569Z,0.80
2018-03-07T10:20:10.016Z,1.10
2018-03-07T10:22:38.242Z,0.93
2018-03-07T10:25:05.686Z,1.13
2018-03-07T10:27:33.169Z,1.13
2018-03-07T10:30:00.618Z,0.67
2018-03-07T10:32:28.065Z,0.60
2018-03-07T10:34:55.530Z,0.70
2018-03-07T10:37:22.993Z,0.77
2018-03-07T10:39:50.446Z,0.60
2018-03-07T10:42:17.902Z,0.87
2018-03-07T10:44:45.346Z,0.90
2018-03-07T10:47:13.782Z,1.00
2018-03-07T10:49:41.250Z,0.57
2018-03-07T10:52:08.726Z,0.73
2018-03-07T10:54:36.314Z,0.93
2018-03-07T10:57:03.758Z,0.83
2018-03-07T10:59:31.210Z,0.70
2018-03-07T11:01:58.657Z,1.03
2018-03-07T11:04:26.124Z,0.57
2018-03-07T11:06:53.569Z,0.87
2018-03-07T11:09:21.046Z,0.70
2018-03-07T11:11:48.497Z,0.67
2018-03-07T11:14:15.957Z,0.60
2018-03-07T11:16:43.409Z,0.60
2018-03-07T11:19:10.865Z,0.53
2018-03-07T11:21:38.326Z,0.80
2018-03-07T11:24:05.782Z,0.60
2018-03-07T11:26:33.231Z,0.90
2018-03-07T11:29:00.689Z,0.70
2018-03-07T11:31:28.159Z,0.70
2018-03-07T11:33:55.618Z,0.70
2018-03-07T11:36:23.066Z,0.67
2018-03-07T11:38:50.523Z,0.70
2018-03-07T11:41:17.978Z,0.70
2018-03-07T11:43:45.442Z,0.87
2018-03-07T11:46:12.893Z,0.60
2018-03-07T11:48:40.364Z,0.53
2018-03-07T11:51:07.809Z,0.90
2018-03-07T11:53:35.259Z,0.50
2018-03-07T11:56:02.720Z,0.70
2018-03-07T11:58:30.162Z,0.70
2018-03-07T12:00:57.623Z,1.00
2018-03-07T12:03:25.073Z,0.90
2018-03-07T12:05:52.536Z,0.70
2018-03-07T12:08:19.990Z,0.70
2018-03-07T12:10:47.453Z,0.67
2018-03-07T12:13:14.902Z,0.70
2018-03-07T12:15:42.369Z,0.90
2018-03-07T12:18:09.833Z,0.90
2018-03-07T12:20:37.285Z,0.70
2018-03-07T12:23:04.750Z,0.60
2018-03-07T12:25:32.210Z,0.90
2018-03-07T12:27:59.674Z,0.80
2018-03-07T12:30:27.142Z,0.80
2018-03-07T12:32:55.394Z,0.80
2018-03-07T12:35:22.829Z,0.70
2018-03-07T12:37:50.274Z,0.90
2018-03-07T12:40:17.734Z,0.90
2018-03-07T12:42:45.196Z,1.10
2018-03-07T12:45:12.657Z,1.20
2018-03-07T12:47:40.142Z,0.63
2018-03-07T12:50:07.570Z,0.70
2018-03-07T12:52:35.022Z,0.53
2018-03-07T12:55:02.474Z,0.90
2018-03-07T12:57:30.296Z,0.67
2018-03-07T12:59:58.507Z,0.93
2018-03-07T13:02:25.974Z,0.70
2018-03-07T13:04:53.434Z,0.90
2018-03-07T13:07:20.885Z,0.70
2018-03-07T13:09:48.346Z,0.87
2018-03-07T13:12:15.798Z,1.33
2018-03-07T13:14:43.261Z,0.70
2018-03-07T13:17:10.714Z,0.97
2018-03-07T13:19:38.175Z,3.60
2018-03-07T13:22:05.626Z,1.30
2018-03-07T13:24:33.081Z,0.73
2018-03-07T13:27:00.539Z,1.20
2018-03-07T13:29:27.993Z,1.37
2018-03-07T13:31:55.446Z,1.07
2018-03-07T13:34:23.657Z,1.40
2018-03-07T13:36:51.114Z,1.37
2018-03-07T13:39:18.561Z,1.57
2018-03-07T13:41:46.014Z,1.40
2018-03-07T13:44:13.470Z,0.87
2018-03-07T13:46:40.926Z,1.00
2018-03-07T13:49:08.373Z,0.87
2018-03-07T13:51:35.839Z,1.00
2018-03-07T13:54:03.288Z,0.80
2018-03-07T13:56:30.746Z,0.70
2018-03-07T13:58:58.190Z,0.97
2018-03-07T14:01:25.658Z,0.60
2018-03-07T14:03:53.111Z,0.90
2018-03-07T14:06:20.561Z,1.37
2018-03-07T14:08:48.017Z,0.50
2018-03-07T14:11:15.469Z,0.87
2018-03-07T14:13:42.949Z,0.90
2018-03-07T14:16:10.389Z,0.80
2018-03-07T14:18:37.840Z,0.50
2018-03-07T14:21:05.295Z,0.70
2018-03-07T14:23:32.754Z,0.70
2018-03-07T14:26:00.207Z,0.80
2018-03-07T14:28:27.661Z,0.80
2018-03-07T14:30:55.110Z,0.73
2018-03-07T14:33:22.573Z,0.60
2018-03-07T14:35:50.026Z,0.70
2018-03-07T14:38:17.481Z,1.13
2018-03-07T14:40:44.927Z,0.70
2018-03-07T14:43:12.382Z,0.70
2018-03-07T14:45:39.835Z,0.73
2018-03-07T14:48:08.219Z,0.60
2018-03-07T14:50:35.668Z,0.77
2018-03-07T14:53:03.122Z,0.90
2018-03-07T14:55:30.585Z,1.23
2018-03-07T14:57:58.049Z,1.03
2018-03-07T15:00:25.548Z,2.00
2018-03-07T15:02:52.955Z,1.03
2018-03-07T15:05:20.406Z,0.97
2018-03-07T15:07:47.874Z,0.90
2018-03-07T15:10:15.329Z,0.80
2018-03-07T15:12:42.778Z,1.07
2018-03-07T15:15:10.234Z,0.73
2018-03-07T15:17:37.681Z,0.83
2018-03-07T15:20:05.134Z,0.67
2018-03-07T15:22:32.585Z,1.20
2018-03-07T15:25:00.039Z,0.90
2018-03-07T15:27:27.496Z,1.07
2018-03-07T15:29:54.963Z,0.90
2018-03-07T15:32:22.409Z,1.00
2018-03-07T15:34:49.878Z,0.80
2018-03-07T15:37:17.325Z,0.80
2018-03-07T15:39:44.781Z,0.70
2018-03-07T15:42:12.238Z,0.83
2018-03-07T15:44:39.690Z,0.90
2018-03-07T15:47:07.144Z,1.50
2018-03-07T15:49:35.365Z,1.20
2018-03-07T15:52:02.821Z,0.93
2018-03-07T15:54:30.358Z,0.80
2018-03-07T15:56:57.798Z,0.90
2018-03-07T15:59:25.258Z,1.20
2018-03-07T16:01:52.707Z,0.90
2018-03-07T16:04:20.171Z,0.70
2018-03-07T16:06:47.618Z,1.00
2018-03-07T16:09:15.074Z,0.80
2018-03-07T16:11:42.527Z,1.10
2018-03-07T16:14:10.750Z,1.00
2018-03-07T16:16:38.206Z,0.80
2018-03-07T16:19:05.664Z,1.10
2018-03-07T16:21:33.175Z,0.90
2018-03-07T16:24:01.385Z,1.07
2018-03-07T16:26:28.849Z,1.10
2018-03-07T16:28:56.298Z,1.50
2018-03-07T16:31:23.778Z,1.23
2018-03-07T16:33:51.226Z,1.20
2018-03-07T16:36:18.683Z,0.90
2018-03-07T16:38:46.139Z,1.17
2018-03-07T16:41:13.598Z,1.00
2018-03-07T16:43:41.045Z,1.10
2018-03-07T16:46:08.505Z,0.90
2018-03-07T16:48:35.985Z,1.13
2018-03-07T16:51:03.452Z,2.13
2018-03-07T16:53:30.896Z,1.37
2018-03-07T16:55:58.359Z,0.70
2018-03-07T16:58:25.809Z,0.97
2018-03-07T17:00:53.266Z,0.70
2018-03-07T17:03:20.713Z,1.20
2018-03-07T17:05:48.183Z,0.70
2018-03-07T17:08:15.630Z,1.13
2018-03-07T17:10:43.073Z,1.17
2018-03-07T17:13:10.530Z,0.90
2018-03-07T17:15:37.984Z,1.00
2018-03-07T17:18:05.463Z,0.90
2018-03-07T17:20:32.914Z,0.90
2018-03-07T17:23:00.369Z,1.10
2018-03-07T17:25:27.825Z,0.83
2018-03-07T17:27:56.250Z,1.20
2018-03-07T17:30:23.706Z,1.17
2018-03-07T17:32:51.177Z,0.90
2018-03-07T17:35:18.622Z,1.37
2018-03-07T17:37:46.092Z,1.50
2018-03-07T17:40:13.529Z,1.60
2018-03-07T17:42:40.985Z,1.00
2018-03-07T17:45:08.435Z,1.10
2018-03-07T17:47:36.677Z,1.20
2018-03-07T17:50:04.117Z,0.90
2018-03-07T17:52:31.618Z,0.70
2018-03-07T17:54:59.831Z,1.00
2018-03-07T17:57:27.293Z,0.80
2018-03-07T17:59:54.761Z,1.10
2018-03-07T18:02:22.223Z,0.87
2018-03-07T18:04:49.673Z,1.00
2018-03-07T18:07:17.141Z,1.00
2018-03-07T18:09:44.603Z,1.50
2018-03-07T18:12:12.091Z,1.23
2018-03-07T18:14:40.331Z,1.13
2018-03-07T18:17:07.879Z,0.70
2018-03-07T18:19:35.365Z,0.80
2018-03-07T18:22:02.824Z,0.90
2018-03-07T18:24:30.274Z,1.30
2018-03-07T18:26:57.726Z,0.90
2018-03-07T18:29:25.205Z,1.20
2018-03-07T18:31:53.416Z,1.30
2018-03-07T18:34:20.873Z,1.43
2018-03-07T18:36:48.331Z,1.00
2018-03-07T18:39:15.796Z,1.23
2018-03-07T18:41:43.275Z,0.77
2018-03-07T18:44:10.735Z,0.80
2018-03-07T18:46:38.178Z,0.80
2018-03-07T18:49:05.663Z,0.87
2018-03-07T18:51:33.178Z,1.00
2018-03-07T18:54:00.684Z,1.80
2018-03-07T18:56:28.928Z,1.70
2018-03-07T18:58:56.375Z,2.37
2018-03-07T19:01:23.827Z,3.40
2018-03-07T19:03:51.341Z,2.03
2018-03-07T19:06:19.617Z,1.53
2018-03-07T19:08:47.082Z,1.47
2018-03-07T19:11:14.612Z,1.30
2018-03-07T19:13:42.065Z,1.67
2018-03-07T19:16:09.520Z,1.03
2018-03-07T19:18:36.989Z,1.00
2018-03-07T19:21:05.210Z,0.97
2018-03-07T19:23:32.670Z,3.30
2018-03-07T19:26:00.847Z,0.87
2018-03-07T19:28:28.309Z,1.10
2018-03-07T19:30:55.776Z,1.40
2018-03-07T19:33:23.229Z,1.07
2018-03-07T19:35:50.727Z,0.63
2018-03-07T19:38:18.952Z,0.83
2018-03-07T19:40:46.401Z,0.93
2018-03-07T19:43:13.854Z,1.20
2018-03-07T19:45:41.318Z,1.07
2018-03-07T19:48:08.771Z,0.90
2018-03-07T19:50:36.235Z,1.90
2018-03-07T19:53:03.678Z,3.10
2018-03-07T19:55:31.131Z,1.10
2018-03-07T19:57:58.581Z,1.40
2018-03-07T20:00:26.030Z,1.00
2018-03-07T20:02:53.509Z,0.90
2018-03-07T20:05:20.990Z,1.30
2018-03-07T20:07:48.453Z,1.40
2018-03-07T20:10:15.918Z,1.67
2018-03-07T20:12:43.381Z,1.23
2018-03-07T20:15:10.870Z,1.37
2018-03-07T20:17:52.256Z,1.90
2018-03-07T20:20:19.725Z,1.67
2018-03-07T20:22:47.182Z,1.40
2018-03-07T20:25:14.636Z,1.80
2018-03-07T20:27:42.110Z,1.90
2018-03-07T20:30:09.575Z,1.40
2018-03-07T20:32:37.014Z,1.60
2018-03-07T20:35:04.493Z,2.10
2018-03-07T20:37:31.965Z,2.90
2018-03-07T20:39:59.431Z,2.30
2018-03-07T20:42:27.650Z,2.67
2018-03-07T20:44:55.119Z,4.47
2018-03-07T20:47:22.602Z,2.63
2018-03-07T20:49:50.053Z,5.93
2018-03-07T20:52:17.508Z,2.80
2018-03-07T20:54:44.973Z,2.40
2018-03-07T20:57:12.431Z,2.10
2018-03-07T20:59:39.886Z,2.00
2018-03-07T21:02:07.349Z,1.90
2018-03-07T21:04:34.809Z,1.63
2018-03-07T21:07:02.286Z,2.00
2018-03-07T21:09:30.497Z,1.87
2018-03-07T21:11:57.976Z,1.90
2018-03-07T21:14:25.420Z,1.90
2018-03-07T21:16:52.878Z,1.53
2018-03-07T21:19:20.328Z,1.90
2018-03-07T21:21:47.789Z,1.60
2018-03-07T21:24:16.030Z,1.63
2018-03-07T21:26:43.498Z,1.57
2018-03-07T21:29:10.962Z,1.60
2018-03-07T21:31:38.422Z,1.30
2018-03-07T21:34:05.870Z,1.30
2018-03-07T21:36:33.327Z,1.60
2018-03-07T21:39:00.778Z,1.37
2018-03-07T21:41:28.234Z,1.50
2018-03-07T21:43:55.681Z,1.70
2018-03-07T21:46:23.154Z,1.67
2018-03-07T21:48:50.614Z,1.20
2018-03-07T21:51:18.095Z,1.47
2018-03-07T21:53:45.538Z,1.73
2018-03-07T21:56:13.013Z,1.33
2018-03-07T21:58:40.458Z,1.53
2018-03-07T22:01:07.938Z,1.83
2018-03-07T22:03:35.367Z,1.57
2018-03-07T22:06:02.852Z,1.57
2018-03-07T22:08:30.314Z,1.40
2018-03-07T22:10:58.068Z,1.30
2018-03-07T22:13:25.589Z,1.00
2018-03-07T22:15:53.119Z,1.40
2018-03-07T22:18:20.643Z,1.60
2018-03-07T22:20:48.165Z,1.30
2018-03-07T22:23:15.618Z,1.37
2018-03-07T22:25:43.072Z,1.67
2018-03-07T22:28:10.534Z,1.60
2018-03-07T22:30:37.986Z,1.70
2018-03-07T22:33:05.451Z,1.80
2018-03-07T22:35:32.921Z,1.67
2018-03-07T22:38:00.370Z,2.43
2018-03-07T22:40:27.812Z,1.90
2018-03-07T22:42:55.281Z,1.90
2018-03-07T22:45:22.725Z,1.40
2018-03-07T22:47:50.184Z,1.80
2018-03-07T22:50:17.638Z,1.70
2018-03-07T22:52:45.097Z,1.57
2018-03-07T22:55:12.547Z,2.20
2018-03-07T22:57:40.006Z,1.27
2018-03-07T23:00:13.084Z,1.60
2018-03-07T23:02:40.534Z,2.00
2018-03-07T23:05:07.977Z,2.13
2018-03-07T23:07:35.433Z,2.07
2018-03-07T23:10:03.668Z,1.87
2018-03-07T23:12:31.114Z,2.43
2018-03-07T23:14:58.557Z,1.87
2018-03-07T23:17:26.023Z,2.50
2018-03-07T23:19:53.471Z,2.03
2018-03-07T23:22:20.919Z,1.80
2018-03-07T23:24:48.383Z,2.30
2018-03-07T23:27:15.832Z,1.80
2018-03-07T23:29:43.291Z,1.97
2018-03-07T23:32:10.738Z,1.80
2018-03-07T23:34:38.203Z,1.33
2018-03-07T23:37:05.633Z,1.70
2018-03-07T23:39:33.095Z,1.90
2018-03-07T23:42:00.533Z,1.40
2018-03-07T23:44:28.755Z,1.73
2018-03-07T23:46:56.201Z,1.80
2018-03-07T23:49:23.658Z,1.90
2018-03-07T23:51:51.105Z,1.67
2018-03-07T23:54:18.574Z,1.77
2018-03-07T23:56:46.021Z,1.70
2018-03-07T23:59:13.479Z,1.70
